sensor_id;sensor_type;location;lat;lon;timestamp;temperature;humidity
31451;DHT22;18070;52.474;13.304;2023-11-19T00:02:08;5.50;99.90
31451;DHT22;18070;52.474;13.304;2023-11-19T00:04:38;5.60;99.90
31451;DHT22;18070;52.474;13.304;2023-11-19T00:07:07;5.50;99.90
31451;DHT22;18070;52.474;13.304;2023-11-19T00:09:33;5.50;99.90
31451;DHT22;18070;52.474;13.304;2023-11-19T00:12:00;5.50;99.90
31451;DHT22;18070;52.474;13.304;2023-11-19T00:14:26;5.50;99.90
31451;DHT22;18070;52.474;13.304;2023-11-19T00:16:52;5.50;99.90
31451;DHT22;18070;52.474;13.304;2023-11-19T00:19:19;5.40;99.90
31451;DHT22;18070;52.474;13.304;2023-11-19T00:21:44;5.50;99.90
31451;DHT22;18070;52.474;13.304;2023-11-19T00:24:11;5.60;99.90
31451;DHT22;18070;52.474;13.304;2023-11-19T00:26:38;5.50;99.90
31451;DHT22;18070;52.474;13.304;2023-11-19T00:29:04;5.50;99.90
31451;DHT22;18070;52.474;13.304;2023-11-19T00:31:29;5.50;99.90
31451;DHT22;18070;52.474;13.304;2023-11-19T00:33:55;5.50;99.90
31451;DHT22;18070;52.474;13.304;2023-11-19T00:36:21;5.50;99.90
31451;DHT22;18070;52.474;13.304;2023-11-19T00:38:49;5.50;99.90
31451;DHT22;18070;52.474;13.304;2023-11-19T00:41:15;5.50;99.90
31451;DHT22;18070;52.474;13.304;2023-11-19T00:43:42;5.50;99.90
31451;DHT22;18070;52.474;13.304;2023-11-19T00:46:07;5.50;99.90
31451;DHT22;18070;52.474;13.304;2023-11-19T00:48:33;5.60;99.90
31451;DHT22;18070;52.474;13.304;2023-11-19T00:50:59;5.70;99.90
31451;DHT22;18070;52.474;13.304;2023-11-19T00:53:25;5.70;99.90
31451;DHT22;18070;52.474;13.304;2023-11-19T00:55:50;5.70;99.90
31451;DHT22;18070;52.474;13.304;2023-11-19T00:58:16;5.70;99.90
31451;DHT22;18070;52.474;13.304;2023-11-19T01:00:43;5.70;99.90
31451;DHT22;18070;52.474;13.304;2023-11-19T01:03:10;5.90;99.90
31451;DHT22;18070;52.474;13.304;2023-11-19T01:05:39;5.80;99.90
31451;DHT22;18070;52.474;13.304;2023-11-19T01:08:05;5.90;99.90
31451;DHT22;18070;52.474;13.304;2023-11-19T01:10:31;5.90;99.90
31451;DHT22;18070;52.474;13.304;2023-11-19T01:12:57;6.00;99.90
31451;DHT22;18070;52.474;13.304;2023-11-19T01:15:23;5.90;99.90
31451;DHT22;18070;52.474;13.304;2023-11-19T01:17:48;5.90;99.90
31451;DHT22;18070;52.474;13.304;2023-11-19T01:20:14;5.70;99.90
31451;DHT22;18070;52.474;13.304;2023-11-19T01:22:40;5.70;99.90
31451;DHT22;18070;52.474;13.304;2023-11-19T01:25:06;5.80;99.90
31451;DHT22;18070;52.474;13.304;2023-11-19T01:27:32;5.90;99.90
31451;DHT22;18070;52.474;13.304;2023-11-19T01:30:00;5.80;99.90
31451;DHT22;18070;52.474;13.304;2023-11-19T01:32:31;5.90;99.90
31451;DHT22;18070;52.474;13.304;2023-11-19T01:34:57;5.80;99.90
31451;DHT22;18070;52.474;13.304;2023-11-19T01:37:22;5.80;99.90
31451;DHT22;18070;52.474;13.304;2023-11-19T01:39:48;5.80;99.90
31451;DHT22;18070;52.474;13.304;2023-11-19T01:42:14;5.70;99.90
31451;DHT22;18070;52.474;13.304;2023-11-19T01:44:40;5.70;99.90
31451;DHT22;18070;52.474;13.304;2023-11-19T01:47:06;5.60;99.90
31451;DHT22;18070;52.474;13.304;2023-11-19T01:49:33;5.60;99.90
31451;DHT22;18070;52.474;13.304;2023-11-19T01:51:58;5.60;99.90
31451;DHT22;18070;52.474;13.304;2023-11-19T01:54:25;5.70;99.90
31451;DHT22;18070;52.474;13.304;2023-11-19T01:56:53;5.80;99.90
31451;DHT22;18070;52.474;13.304;2023-11-19T01:59:19;5.90;99.90
31451;DHT22;18070;52.474;13.304;2023-11-19T02:01:52;6.00;99.90
31451;DHT22;18070;52.474;13.304;2023-11-19T02:04:18;6.00;99.90
31451;DHT22;18070;52.474;13.304;2023-11-19T02:06:45;6.00;99.90
31451;DHT22;18070;52.474;13.304;2023-11-19T02:09:12;5.90;99.90
31451;DHT22;18070;52.474;13.304;2023-11-19T02:11:41;5.90;99.90
31451;DHT22;18070;52.474;13.304;2023-11-19T02:14:07;5.90;99.90
31451;DHT22;18070;52.474;13.304;2023-11-19T02:16:32;5.90;99.90
31451;DHT22;18070;52.474;13.304;2023-11-19T02:18:58;5.90;99.90
31451;DHT22;18070;52.474;13.304;2023-11-19T02:21:24;5.90;99.90
31451;DHT22;18070;52.474;13.304;2023-11-19T02:23:50;5.90;99.90
31451;DHT22;18070;52.474;13.304;2023-11-19T02:26:32;5.80;99.90
31451;DHT22;18070;52.474;13.304;2023-11-19T02:29:01;5.80;99.90
31451;DHT22;18070;52.474;13.304;2023-11-19T02:31:28;5.80;99.90
31451;DHT22;18070;52.474;13.304;2023-11-19T02:33:53;5.70;99.90
31451;DHT22;18070;52.474;13.304;2023-11-19T02:36:20;5.80;99.90
31451;DHT22;18070;52.474;13.304;2023-11-19T02:38:47;5.90;99.90
31451;DHT22;18070;52.474;13.304;2023-11-19T02:41:14;6.00;99.90
31451;DHT22;18070;52.474;13.304;2023-11-19T02:43:39;5.90;99.90
31451;DHT22;18070;52.474;13.304;2023-11-19T02:46:05;6.00;99.90
31451;DHT22;18070;52.474;13.304;2023-11-19T02:48:37;6.00;99.90
31451;DHT22;18070;52.474;13.304;2023-11-19T02:51:03;6.10;99.90
31451;DHT22;18070;52.474;13.304;2023-11-19T02:53:30;6.10;99.90
31451;DHT22;18070;52.474;13.304;2023-11-19T02:55:56;6.10;99.90
31451;DHT22;18070;52.474;13.304;2023-11-19T02:58:34;6.00;99.90
31451;DHT22;18070;52.474;13.304;2023-11-19T03:01:00;6.10;99.90
31451;DHT22;18070;52.474;13.304;2023-11-19T03:03:35;6.10;99.90
31451;DHT22;18070;52.474;13.304;2023-11-19T03:06:07;6.10;99.90
31451;DHT22;18070;52.474;13.304;2023-11-19T03:08:35;6.10;99.90
31451;DHT22;18070;52.474;13.304;2023-11-19T03:11:01;6.00;99.90
31451;DHT22;18070;52.474;13.304;2023-11-19T03:13:27;6.00;99.90
31451;DHT22;18070;52.474;13.304;2023-11-19T03:15:53;6.00;99.90
31451;DHT22;18070;52.474;13.304;2023-11-19T03:18:19;6.00;99.90
31451;DHT22;18070;52.474;13.304;2023-11-19T03:20:46;6.00;99.90
31451;DHT22;18070;52.474;13.304;2023-11-19T03:23:12;5.90;99.90
31451;DHT22;18070;52.474;13.304;2023-11-19T03:25:38;5.80;99.90
31451;DHT22;18070;52.474;13.304;2023-11-19T03:28:04;5.90;99.90
31451;DHT22;18070;52.474;13.304;2023-11-19T03:30:30;5.90;99.90
31451;DHT22;18070;52.474;13.304;2023-11-19T03:32:57;5.90;99.90
31451;DHT22;18070;52.474;13.304;2023-11-19T03:35:23;5.90;99.90
31451;DHT22;18070;52.474;13.304;2023-11-19T03:37:50;5.80;99.90
31451;DHT22;18070;52.474;13.304;2023-11-19T03:40:17;5.80;99.90
31451;DHT22;18070;52.474;13.304;2023-11-19T03:42:44;5.90;99.90
31451;DHT22;18070;52.474;13.304;2023-11-19T03:45:10;5.90;99.90
31451;DHT22;18070;52.474;13.304;2023-11-19T03:47:36;5.80;99.90
31451;DHT22;18070;52.474;13.304;2023-11-19T03:50:02;5.80;99.90
31451;DHT22;18070;52.474;13.304;2023-11-19T03:52:28;5.80;99.90
31451;DHT22;18070;52.474;13.304;2023-11-19T03:54:54;5.90;99.90
31451;DHT22;18070;52.474;13.304;2023-11-19T03:57:21;5.90;99.90
31451;DHT22;18070;52.474;13.304;2023-11-19T03:59:46;5.90;99.90
31451;DHT22;18070;52.474;13.304;2023-11-19T04:02:12;5.90;99.90
31451;DHT22;18070;52.474;13.304;2023-11-19T04:04:38;5.90;99.90
31451;DHT22;18070;52.474;13.304;2023-11-19T04:07:07;5.80;99.90
31451;DHT22;18070;52.474;13.304;2023-11-19T04:09:33;5.90;99.90
31451;DHT22;18070;52.474;13.304;2023-11-19T04:11:59;5.90;99.90
31451;DHT22;18070;52.474;13.304;2023-11-19T04:14:26;5.90;99.90
31451;DHT22;18070;52.474;13.304;2023-11-19T04:16:52;5.80;99.90
31451;DHT22;18070;52.474;13.304;2023-11-19T04:19:21;5.80;99.90
31451;DHT22;18070;52.474;13.304;2023-11-19T04:21:47;5.80;99.90
31451;DHT22;18070;52.474;13.304;2023-11-19T04:24:13;5.70;99.90
31451;DHT22;18070;52.474;13.304;2023-11-19T04:26:42;5.70;99.90
31451;DHT22;18070;52.474;13.304;2023-11-19T04:29:11;5.80;99.90
31451;DHT22;18070;52.474;13.304;2023-11-19T04:31:38;5.70;99.90
31451;DHT22;18070;52.474;13.304;2023-11-19T04:34:05;5.80;99.90
31451;DHT22;18070;52.474;13.304;2023-11-19T04:36:32;5.80;99.90
31451;DHT22;18070;52.474;13.304;2023-11-19T04:38:58;5.70;99.90
31451;DHT22;18070;52.474;13.304;2023-11-19T04:41:25;5.70;99.90
31451;DHT22;18070;52.474;13.304;2023-11-19T04:43:51;5.80;99.90
31451;DHT22;18070;52.474;13.304;2023-11-19T04:46:16;5.80;99.90
31451;DHT22;18070;52.474;13.304;2023-11-19T04:48:42;5.70;99.90
31451;DHT22;18070;52.474;13.304;2023-11-19T04:51:08;5.70;99.90
31451;DHT22;18070;52.474;13.304;2023-11-19T04:53:35;5.60;99.90
31451;DHT22;18070;52.474;13.304;2023-11-19T04:56:01;5.70;99.90
31451;DHT22;18070;52.474;13.304;2023-11-19T04:58:32;5.60;99.90
31451;DHT22;18070;52.474;13.304;2023-11-19T05:00:59;5.50;99.90
31451;DHT22;18070;52.474;13.304;2023-11-19T05:03:24;5.50;99.90
31451;DHT22;18070;52.474;13.304;2023-11-19T05:05:50;5.60;99.90
31451;DHT22;18070;52.474;13.304;2023-11-19T05:08:16;5.60;99.90
31451;DHT22;18070;52.474;13.304;2023-11-19T05:10:41;5.50;99.90
31451;DHT22;18070;52.474;13.304;2023-11-19T05:13:07;5.50;99.90
31451;DHT22;18070;52.474;13.304;2023-11-19T05:15:32;5.50;99.90
31451;DHT22;18070;52.474;13.304;2023-11-19T05:17:58;5.60;99.90
31451;DHT22;18070;52.474;13.304;2023-11-19T05:20:24;5.60;99.90
31451;DHT22;18070;52.474;13.304;2023-11-19T05:22:50;5.50;99.90
31451;DHT22;18070;52.474;13.304;2023-11-19T05:25:17;5.50;99.90
31451;DHT22;18070;52.474;13.304;2023-11-19T05:27:42;5.50;99.90
31451;DHT22;18070;52.474;13.304;2023-11-19T05:30:08;5.50;99.90
31451;DHT22;18070;52.474;13.304;2023-11-19T05:32:36;5.50;99.90
31451;DHT22;18070;52.474;13.304;2023-11-19T05:35:01;5.60;99.90
31451;DHT22;18070;52.474;13.304;2023-11-19T05:37:27;5.60;99.90
31451;DHT22;18070;52.474;13.304;2023-11-19T05:39:53;5.70;99.90
31451;DHT22;18070;52.474;13.304;2023-11-19T05:42:18;5.70;99.90
31451;DHT22;18070;52.474;13.304;2023-11-19T05:44:44;5.50;99.90
31451;DHT22;18070;52.474;13.304;2023-11-19T05:47:10;5.50;99.90
31451;DHT22;18070;52.474;13.304;2023-11-19T05:49:35;5.60;99.90
31451;DHT22;18070;52.474;13.304;2023-11-19T05:52:02;5.60;99.90
31451;DHT22;18070;52.474;13.304;2023-11-19T05:54:29;5.60;99.90
31451;DHT22;18070;52.474;13.304;2023-11-19T05:56:54;5.50;99.90
31451;DHT22;18070;52.474;13.304;2023-11-19T05:59:20;5.40;99.90
31451;DHT22;18070;52.474;13.304;2023-11-19T06:01:48;5.40;99.90
31451;DHT22;18070;52.474;13.304;2023-11-19T06:04:13;5.40;99.90
31451;DHT22;18070;52.474;13.304;2023-11-19T06:06:39;5.40;99.90
31451;DHT22;18070;52.474;13.304;2023-11-19T06:09:05;5.50;99.90
31451;DHT22;18070;52.474;13.304;2023-11-19T06:11:33;5.50;99.90
31451;DHT22;18070;52.474;13.304;2023-11-19T06:13:59;5.60;99.90
31451;DHT22;18070;52.474;13.304;2023-11-19T06:16:25;5.60;99.90
31451;DHT22;18070;52.474;13.304;2023-11-19T06:18:50;5.50;99.90
31451;DHT22;18070;52.474;13.304;2023-11-19T06:21:16;5.50;99.90
31451;DHT22;18070;52.474;13.304;2023-11-19T06:23:42;5.60;99.90
31451;DHT22;18070;52.474;13.304;2023-11-19T06:26:07;5.70;99.90
31451;DHT22;18070;52.474;13.304;2023-11-19T06:28:34;5.60;99.90
31451;DHT22;18070;52.474;13.304;2023-11-19T06:30:59;5.60;99.90
31451;DHT22;18070;52.474;13.304;2023-11-19T06:33:25;5.50;99.90
31451;DHT22;18070;52.474;13.304;2023-11-19T06:35:52;5.50;99.90
31451;DHT22;18070;52.474;13.304;2023-11-19T06:38:18;5.70;99.90
31451;DHT22;18070;52.474;13.304;2023-11-19T06:40:44;5.70;99.90
31451;DHT22;18070;52.474;13.304;2023-11-19T06:43:09;5.70;99.90
31451;DHT22;18070;52.474;13.304;2023-11-19T06:45:35;5.60;99.90
31451;DHT22;18070;52.474;13.304;2023-11-19T06:48:03;5.70;99.90
31451;DHT22;18070;52.474;13.304;2023-11-19T06:50:29;5.70;99.90
31451;DHT22;18070;52.474;13.304;2023-11-19T06:52:55;5.70;99.90
31451;DHT22;18070;52.474;13.304;2023-11-19T06:55:20;5.60;99.90
31451;DHT22;18070;52.474;13.304;2023-11-19T06:57:46;5.70;99.90
31451;DHT22;18070;52.474;13.304;2023-11-19T07:00:12;5.70;99.90
31451;DHT22;18070;52.474;13.304;2023-11-19T07:02:37;5.60;99.90
31451;DHT22;18070;52.474;13.304;2023-11-19T07:05:03;5.70;99.90
31451;DHT22;18070;52.474;13.304;2023-11-19T07:07:32;5.70;99.90
31451;DHT22;18070;52.474;13.304;2023-11-19T07:10:01;5.70;99.90
31451;DHT22;18070;52.474;13.304;2023-11-19T07:12:28;5.80;99.90
31451;DHT22;18070;52.474;13.304;2023-11-19T07:14:54;5.90;99.90
31451;DHT22;18070;52.474;13.304;2023-11-19T07:17:20;6.00;99.90
31451;DHT22;18070;52.474;13.304;2023-11-19T07:19:52;5.90;99.90
31451;DHT22;18070;52.474;13.304;2023-11-19T07:22:20;5.90;99.90
31451;DHT22;18070;52.474;13.304;2023-11-19T07:24:46;6.00;99.90
31451;DHT22;18070;52.474;13.304;2023-11-19T07:27:12;5.90;99.90
31451;DHT22;18070;52.474;13.304;2023-11-19T07:29:39;5.90;99.90
31451;DHT22;18070;52.474;13.304;2023-11-19T07:32:05;5.90;99.90
31451;DHT22;18070;52.474;13.304;2023-11-19T07:34:30;6.00;99.90
31451;DHT22;18070;52.474;13.304;2023-11-19T07:36:56;6.00;99.90
31451;DHT22;18070;52.474;13.304;2023-11-19T07:39:25;6.00;99.90
31451;DHT22;18070;52.474;13.304;2023-11-19T07:41:50;6.20;99.90
31451;DHT22;18070;52.474;13.304;2023-11-19T07:44:16;6.40;99.90
31451;DHT22;18070;52.474;13.304;2023-11-19T07:46:42;6.30;99.90
31451;DHT22;18070;52.474;13.304;2023-11-19T07:49:10;6.30;99.90
31451;DHT22;18070;52.474;13.304;2023-11-19T07:51:36;6.30;99.90
31451;DHT22;18070;52.474;13.304;2023-11-19T07:54:02;6.30;99.90
31451;DHT22;18070;52.474;13.304;2023-11-19T07:56:27;6.40;99.90
31451;DHT22;18070;52.474;13.304;2023-11-19T07:58:53;6.40;99.90
31451;DHT22;18070;52.474;13.304;2023-11-19T08:01:19;6.50;99.90
31451;DHT22;18070;52.474;13.304;2023-11-19T08:03:44;6.50;99.90
31451;DHT22;18070;52.474;13.304;2023-11-19T08:06:10;6.60;99.90
31451;DHT22;18070;52.474;13.304;2023-11-19T08:08:36;6.60;99.90
31451;DHT22;18070;52.474;13.304;2023-11-19T08:11:03;6.70;99.90
31451;DHT22;18070;52.474;13.304;2023-11-19T08:13:30;6.70;99.90
31451;DHT22;18070;52.474;13.304;2023-11-19T08:15:57;6.70;99.90
31451;DHT22;18070;52.474;13.304;2023-11-19T08:18:24;6.70;99.90
31451;DHT22;18070;52.474;13.304;2023-11-19T08:20:50;6.80;99.90
31451;DHT22;18070;52.474;13.304;2023-11-19T08:23:21;6.90;99.90
31451;DHT22;18070;52.474;13.304;2023-11-19T08:25:49;6.90;99.90
31451;DHT22;18070;52.474;13.304;2023-11-19T08:28:15;6.90;99.90
31451;DHT22;18070;52.474;13.304;2023-11-19T08:30:40;7.10;99.90
31451;DHT22;18070;52.474;13.304;2023-11-19T08:33:06;7.10;99.90
31451;DHT22;18070;52.474;13.304;2023-11-19T08:35:32;7.20;99.90
31451;DHT22;18070;52.474;13.304;2023-11-19T08:37:58;7.20;99.90
31451;DHT22;18070;52.474;13.304;2023-11-19T08:40:24;7.30;99.90
31451;DHT22;18070;52.474;13.304;2023-11-19T08:42:51;7.30;99.90
31451;DHT22;18070;52.474;13.304;2023-11-19T08:45:17;7.30;99.90
31451;DHT22;18070;52.474;13.304;2023-11-19T08:47:43;7.40;99.90
31451;DHT22;18070;52.474;13.304;2023-11-19T08:50:11;7.60;99.90
31451;DHT22;18070;52.474;13.304;2023-11-19T08:52:36;7.70;99.90
31451;DHT22;18070;52.474;13.304;2023-11-19T08:55:02;7.80;99.90
31451;DHT22;18070;52.474;13.304;2023-11-19T08:57:28;7.80;99.90
31451;DHT22;18070;52.474;13.304;2023-11-19T08:59:54;7.90;99.90
31451;DHT22;18070;52.474;13.304;2023-11-19T09:02:19;7.90;99.90
31451;DHT22;18070;52.474;13.304;2023-11-19T09:04:45;7.90;99.90
31451;DHT22;18070;52.474;13.304;2023-11-19T09:07:11;8.00;99.90
31451;DHT22;18070;52.474;13.304;2023-11-19T09:09:36;8.00;99.90
31451;DHT22;18070;52.474;13.304;2023-11-19T09:12:03;8.10;99.90
31451;DHT22;18070;52.474;13.304;2023-11-19T09:14:29;8.20;99.90
31451;DHT22;18070;52.474;13.304;2023-11-19T09:16:56;8.20;99.90
31451;DHT22;18070;52.474;13.304;2023-11-19T09:19:22;8.30;99.90
31451;DHT22;18070;52.474;13.304;2023-11-19T09:21:47;8.40;99.90
31451;DHT22;18070;52.474;13.304;2023-11-19T09:24:14;9.10;99.90
31451;DHT22;18070;52.474;13.304;2023-11-19T09:26:40;9.90;99.90
31451;DHT22;18070;52.474;13.304;2023-11-19T09:29:07;11.00;99.90
31451;DHT22;18070;52.474;13.304;2023-11-19T09:31:33;11.50;99.90
31451;DHT22;18070;52.474;13.304;2023-11-19T09:34:00;12.40;99.90
31451;DHT22;18070;52.474;13.304;2023-11-19T09:36:25;13.30;99.90
31451;DHT22;18070;52.474;13.304;2023-11-19T09:38:51;12.70;99.90
31451;DHT22;18070;52.474;13.304;2023-11-19T09:41:17;11.80;99.90
31451;DHT22;18070;52.474;13.304;2023-11-19T09:43:45;11.60;99.90
31451;DHT22;18070;52.474;13.304;2023-11-19T09:46:12;12.80;99.90
31451;DHT22;18070;52.474;13.304;2023-11-19T09:48:39;14.30;99.90
31451;DHT22;18070;52.474;13.304;2023-11-19T09:51:07;14.10;99.90
31451;DHT22;18070;52.474;13.304;2023-11-19T09:53:34;13.40;99.90
31451;DHT22;18070;52.474;13.304;2023-11-19T09:56:02;13.10;99.90
31451;DHT22;18070;52.474;13.304;2023-11-19T09:58:29;12.70;99.90
31451;DHT22;18070;52.474;13.304;2023-11-19T10:00:56;13.10;99.90
31451;DHT22;18070;52.474;13.304;2023-11-19T10:03:24;12.90;99.90
31451;DHT22;18070;52.474;13.304;2023-11-19T10:05:51;12.50;99.90
31451;DHT22;18070;52.474;13.304;2023-11-19T10:08:16;12.20;99.90
31451;DHT22;18070;52.474;13.304;2023-11-19T10:10:43;11.90;99.90
31451;DHT22;18070;52.474;13.304;2023-11-19T10:13:08;11.70;99.90
31451;DHT22;18070;52.474;13.304;2023-11-19T10:15:37;11.50;99.90
31451;DHT22;18070;52.474;13.304;2023-11-19T10:18:03;11.40;99.90
31451;DHT22;18070;52.474;13.304;2023-11-19T10:20:40;11.30;99.90
31451;DHT22;18070;52.474;13.304;2023-11-19T10:23:06;11.30;99.90
31451;DHT22;18070;52.474;13.304;2023-11-19T10:25:32;11.30;99.90
31451;DHT22;18070;52.474;13.304;2023-11-19T10:27:59;11.20;99.90
31451;DHT22;18070;52.474;13.304;2023-11-19T10:30:27;11.50;99.90
31451;DHT22;18070;52.474;13.304;2023-11-19T10:33:19;12.00;99.90
31451;DHT22;18070;52.474;13.304;2023-11-19T10:35:57;12.50;99.90
31451;DHT22;18070;52.474;13.304;2023-11-19T10:38:23;12.40;99.90
31451;DHT22;18070;52.474;13.304;2023-11-19T10:40:50;12.50;99.90
31451;DHT22;18070;52.474;13.304;2023-11-19T10:43:16;12.70;99.90
31451;DHT22;18070;52.474;13.304;2023-11-19T10:45:43;13.30;99.90
31451;DHT22;18070;52.474;13.304;2023-11-19T10:48:09;13.10;99.90
31451;DHT22;18070;52.474;13.304;2023-11-19T10:50:39;12.90;99.90
31451;DHT22;18070;52.474;13.304;2023-11-19T10:53:06;12.60;99.90
31451;DHT22;18070;52.474;13.304;2023-11-19T10:55:36;12.50;99.90
31451;DHT22;18070;52.474;13.304;2023-11-19T10:58:08;12.30;99.90
31451;DHT22;18070;52.474;13.304;2023-11-19T11:01:02;12.30;99.90
31451;DHT22;18070;52.474;13.304;2023-11-19T11:03:39;12.20;99.90
31451;DHT22;18070;52.474;13.304;2023-11-19T11:06:05;12.20;99.90
31451;DHT22;18070;52.474;13.304;2023-11-19T11:08:31;12.20;99.90
31451;DHT22;18070;52.474;13.304;2023-11-19T11:10:58;12.20;99.90
31451;DHT22;18070;52.474;13.304;2023-11-19T11:13:26;12.10;99.90
31451;DHT22;18070;52.474;13.304;2023-11-19T11:15:56;12.10;99.90
31451;DHT22;18070;52.474;13.304;2023-11-19T11:18:23;12.10;99.90
31451;DHT22;18070;52.474;13.304;2023-11-19T11:20:54;12.00;99.90
31451;DHT22;18070;52.474;13.304;2023-11-19T11:28:59;11.90;99.90
31451;DHT22;18070;52.474;13.304;2023-11-19T11:34:08;12.50;99.90
31451;DHT22;18070;52.474;13.304;2023-11-19T11:36:57;12.90;99.90
31451;DHT22;18070;52.474;13.304;2023-11-19T11:39:25;13.20;99.90
31451;DHT22;18070;52.474;13.304;2023-11-19T11:45:12;13.70;99.90
31451;DHT22;18070;52.474;13.304;2023-11-19T11:50:19;14.60;99.90
31451;DHT22;18070;52.474;13.304;2023-11-19T11:55:52;14.10;99.90
31451;DHT22;18070;52.474;13.304;2023-11-19T11:58:19;13.80;99.90
31451;DHT22;18070;52.474;13.304;2023-11-19T12:00:47;13.60;99.90
31451;DHT22;18070;52.474;13.304;2023-11-19T12:03:13;13.40;99.90
31451;DHT22;18070;52.474;13.304;2023-11-19T12:05:41;13.20;99.90
31451;DHT22;18070;52.474;13.304;2023-11-19T12:08:07;13.00;99.90
31451;DHT22;18070;52.474;13.304;2023-11-19T12:10:50;12.90;99.90
31451;DHT22;18070;52.474;13.304;2023-11-19T12:13:17;12.80;99.90
31451;DHT22;18070;52.474;13.304;2023-11-19T12:18:29;12.80;99.90
31451;DHT22;18070;52.474;13.304;2023-11-19T12:20:56;12.70;99.90
31451;DHT22;18070;52.474;13.304;2023-11-19T12:23:22;12.70;99.90
31451;DHT22;18070;52.474;13.304;2023-11-19T12:25:48;12.70;99.90
31451;DHT22;18070;52.474;13.304;2023-11-19T12:28:15;12.70;99.90
31451;DHT22;18070;52.474;13.304;2023-11-19T12:30:43;12.60;99.90
31451;DHT22;18070;52.474;13.304;2023-11-19T12:33:10;12.60;99.90
31451;DHT22;18070;52.474;13.304;2023-11-19T12:35:54;12.60;99.90
31451;DHT22;18070;52.474;13.304;2023-11-19T12:40:46;12.40;99.90
31451;DHT22;18070;52.474;13.304;2023-11-19T12:43:21;12.50;99.90
31451;DHT22;18070;52.474;13.304;2023-11-19T12:45:47;12.50;99.90
31451;DHT22;18070;52.474;13.304;2023-11-19T12:48:13;12.50;99.90
31451;DHT22;18070;52.474;13.304;2023-11-19T12:50:56;12.50;99.90
31451;DHT22;18070;52.474;13.304;2023-11-19T12:53:23;12.50;99.90
31451;DHT22;18070;52.474;13.304;2023-11-19T12:55:50;12.40;99.90
31451;DHT22;18070;52.474;13.304;2023-11-19T12:58:35;12.50;99.90
31451;DHT22;18070;52.474;13.304;2023-11-19T13:01:05;12.50;99.90
31451;DHT22;18070;52.474;13.304;2023-11-19T13:03:35;12.50;99.90
31451;DHT22;18070;52.474;13.304;2023-11-19T13:06:02;12.50;99.90
31451;DHT22;18070;52.474;13.304;2023-11-19T13:08:36;12.40;99.90
31451;DHT22;18070;52.474;13.304;2023-11-19T13:11:03;12.40;99.90
31451;DHT22;18070;52.474;13.304;2023-11-19T13:13:29;12.30;99.90
31451;DHT22;18070;52.474;13.304;2023-11-19T13:16:04;12.30;99.90
31451;DHT22;18070;52.474;13.304;2023-11-19T13:18:34;12.40;99.90
31451;DHT22;18070;52.474;13.304;2023-11-19T13:21:00;12.40;99.90
31451;DHT22;18070;52.474;13.304;2023-11-19T13:23:26;12.50;99.90
31451;DHT22;18070;52.474;13.304;2023-11-19T13:25:51;12.70;99.90
31451;DHT22;18070;52.474;13.304;2023-11-19T13:28:17;12.70;99.90
31451;DHT22;18070;52.474;13.304;2023-11-19T13:30:43;12.70;99.90
31451;DHT22;18070;52.474;13.304;2023-11-19T13:33:08;12.60;99.90
31451;DHT22;18070;52.474;13.304;2023-11-19T13:35:37;12.60;99.90
31451;DHT22;18070;52.474;13.304;2023-11-19T13:38:05;12.60;99.90
31451;DHT22;18070;52.474;13.304;2023-11-19T13:40:31;12.60;99.90
31451;DHT22;18070;52.474;13.304;2023-11-19T13:42:57;12.60;99.90
31451;DHT22;18070;52.474;13.304;2023-11-19T13:45:22;12.60;99.90
31451;DHT22;18070;52.474;13.304;2023-11-19T13:47:48;12.50;99.90
31451;DHT22;18070;52.474;13.304;2023-11-19T13:50:15;12.50;99.90
31451;DHT22;18070;52.474;13.304;2023-11-19T13:52:44;12.40;99.90
31451;DHT22;18070;52.474;13.304;2023-11-19T13:55:11;12.50;99.90
31451;DHT22;18070;52.474;13.304;2023-11-19T13:57:38;12.40;99.90
31451;DHT22;18070;52.474;13.304;2023-11-19T14:00:06;12.30;99.90
31451;DHT22;18070;52.474;13.304;2023-11-19T14:02:33;12.30;99.90
31451;DHT22;18070;52.474;13.304;2023-11-19T14:04:58;12.30;99.90
31451;DHT22;18070;52.474;13.304;2023-11-19T14:07:24;12.20;99.90
31451;DHT22;18070;52.474;13.304;2023-11-19T14:09:50;12.30;99.90
31451;DHT22;18070;52.474;13.304;2023-11-19T14:12:16;12.10;99.90
31451;DHT22;18070;52.474;13.304;2023-11-19T14:14:41;11.90;99.90
31451;DHT22;18070;52.474;13.304;2023-11-19T14:17:07;11.90;99.90
31451;DHT22;18070;52.474;13.304;2023-11-19T14:19:33;11.90;99.90
31451;DHT22;18070;52.474;13.304;2023-11-19T14:21:59;12.00;99.90
31451;DHT22;18070;52.474;13.304;2023-11-19T14:24:25;12.00;99.90
31451;DHT22;18070;52.474;13.304;2023-11-19T14:26:51;12.10;99.90
31451;DHT22;18070;52.474;13.304;2023-11-19T14:29:17;12.10;99.90
31451;DHT22;18070;52.474;13.304;2023-11-19T14:31:43;12.00;99.90
31451;DHT22;18070;52.474;13.304;2023-11-19T14:34:08;12.10;99.90
31451;DHT22;18070;52.474;13.304;2023-11-19T14:36:34;12.00;99.90
31451;DHT22;18070;52.474;13.304;2023-11-19T14:39:00;12.00;99.90
31451;DHT22;18070;52.474;13.304;2023-11-19T14:41:26;12.00;99.90
31451;DHT22;18070;52.474;13.304;2023-11-19T14:43:52;12.10;99.90
31451;DHT22;18070;52.474;13.304;2023-11-19T14:46:18;12.10;99.90
31451;DHT22;18070;52.474;13.304;2023-11-19T14:48:43;12.10;99.90
31451;DHT22;18070;52.474;13.304;2023-11-19T14:51:09;12.00;99.90
31451;DHT22;18070;52.474;13.304;2023-11-19T14:53:34;11.90;99.90
31451;DHT22;18070;52.474;13.304;2023-11-19T14:56:00;12.00;99.90
31451;DHT22;18070;52.474;13.304;2023-11-19T14:58:26;12.00;99.90
31451;DHT22;18070;52.474;13.304;2023-11-19T15:00:52;12.00;99.90
31451;DHT22;18070;52.474;13.304;2023-11-19T15:03:18;11.90;99.90
31451;DHT22;18070;52.474;13.304;2023-11-19T15:05:47;11.90;99.90
31451;DHT22;18070;52.474;13.304;2023-11-19T15:08:13;12.00;99.90
31451;DHT22;18070;52.474;13.304;2023-11-19T15:10:42;12.00;99.90
31451;DHT22;18070;52.474;13.304;2023-11-19T15:13:08;12.00;99.90
31451;DHT22;18070;52.474;13.304;2023-11-19T15:15:34;11.90;99.90
31451;DHT22;18070;52.474;13.304;2023-11-19T15:18:00;11.90;99.90
31451;DHT22;18070;52.474;13.304;2023-11-19T15:20:26;11.80;99.90
31451;DHT22;18070;52.474;13.304;2023-11-19T15:22:55;11.80;99.90
31451;DHT22;18070;52.474;13.304;2023-11-19T15:25:21;11.80;99.90
31451;DHT22;18070;52.474;13.304;2023-11-19T15:27:48;11.70;99.90
31451;DHT22;18070;52.474;13.304;2023-11-19T15:30:14;11.70;99.90
31451;DHT22;18070;52.474;13.304;2023-11-19T15:32:39;11.60;99.90
31451;DHT22;18070;52.474;13.304;2023-11-19T15:35:06;11.60;99.90
31451;DHT22;18070;52.474;13.304;2023-11-19T15:37:38;11.50;99.90
31451;DHT22;18070;52.474;13.304;2023-11-19T15:40:06;11.50;99.90
31451;DHT22;18070;52.474;13.304;2023-11-19T15:42:34;11.50;99.90
31451;DHT22;18070;52.474;13.304;2023-11-19T15:45:00;11.50;99.90
31451;DHT22;18070;52.474;13.304;2023-11-19T15:47:26;11.50;99.90